createdAt,value
2022-10-11T00:02:27.114Z,100.00
2022-10-11T00:05:01.148Z,100.00
2022-10-11T00:07:31.135Z,100.00
2022-10-11T00:10:05.386Z,100.00
2022-10-11T00:12:34.266Z,100.00
2022-10-11T00:15:03.103Z,100.00
2022-10-11T00:17:36.210Z,100.00
2022-10-11T00:20:11.041Z,100.00
2022-10-11T00:22:41.960Z,100.00
2022-10-11T00:25:29.714Z,100.00
2022-10-11T00:28:16.447Z,100.00
2022-10-11T00:31:09.015Z,100.00
2022-10-11T00:33:58.203Z,100.00
2022-10-11T00:36:45.683Z,100.00
2022-10-11T00:39:32.597Z,100.00
2022-10-11T00:42:19.943Z,100.00
2022-10-11T00:45:44.579Z,100.00
2022-10-11T00:48:35.454Z,100.00
2022-10-11T00:51:27.073Z,100.00
2022-10-11T00:54:17.821Z,100.00
2022-10-11T00:57:07.679Z,100.00
2022-10-11T00:59:55.718Z,100.00
2022-10-11T01:02:43.662Z,100.00
2022-10-11T01:05:31.054Z,100.00
2022-10-11T01:08:19.894Z,100.00
2022-10-11T01:11:07.411Z,100.00
2022-10-11T01:14:07.654Z,100.00
2022-10-11T01:16:59.482Z,100.00
2022-10-11T01:19:55.282Z,100.00
2022-10-11T01:23:05.046Z,100.00
2022-10-11T01:26:11.304Z,100.00
2022-10-11T01:29:07.593Z,100.00
2022-10-11T01:32:02.049Z,100.00
2022-10-11T01:34:57.034Z,100.00
2022-10-11T01:37:48.289Z,100.00
2022-10-11T01:40:38.258Z,100.00
2022-10-11T01:43:25.738Z,100.00
2022-10-11T01:46:13.304Z,100.00
2022-10-11T01:49:03.265Z,100.00
2022-10-11T01:51:52.402Z,100.00
2022-10-11T01:55:09.262Z,100.00
2022-10-11T01:58:08.732Z,100.00
2022-10-11T02:01:00.507Z,100.00
2022-10-11T02:03:50.569Z,100.00
2022-10-11T02:06:45.964Z,100.00
2022-10-11T02:09:36.662Z,100.00
2022-10-11T02:12:27.629Z,100.00
2022-10-11T02:15:15.618Z,100.00
2022-10-11T02:18:07.390Z,100.00
2022-10-11T02:20:54.482Z,100.00
2022-10-11T02:23:49.074Z,100.00
2022-10-11T02:26:36.380Z,100.00
2022-10-11T02:29:24.683Z,100.00
2022-10-11T02:32:11.832Z,100.00
2022-10-11T02:35:00.490Z,100.00
2022-10-11T02:37:51.434Z,100.00
2022-10-11T02:40:42.493Z,100.00
2022-10-11T02:43:33.736Z,100.00
2022-10-11T02:46:21.109Z,100.00
2022-10-11T02:49:08.792Z,100.00
2022-10-11T02:51:56.625Z,100.00
2022-10-11T02:54:43.826Z,100.00
2022-10-11T02:57:31.811Z,100.00
2022-10-11T03:00:18.968Z,100.00
2022-10-11T03:03:06.185Z,100.00
2022-10-11T03:05:59.556Z,100.00
2022-10-11T03:08:46.926Z,100.00
2022-10-11T03:11:34.121Z,100.00
2022-10-11T03:14:22.178Z,100.00
2022-10-11T03:17:31.417Z,100.00
2022-10-11T03:20:16.264Z,100.00
2022-10-11T03:23:03.875Z,100.00
2022-10-11T03:25:52.146Z,100.00
2022-10-11T03:28:41.413Z,100.00
2022-10-11T03:31:29.978Z,100.00
2022-10-11T03:34:17.019Z,100.00
2022-10-11T03:37:03.725Z,100.00
2022-10-11T03:39:50.690Z,100.00
2022-10-11T03:42:38.193Z,100.00
2022-10-11T03:45:24.989Z,100.00
2022-10-11T03:48:13.937Z,100.00
2022-10-11T03:51:01.500Z,100.00
2022-10-11T03:53:51.593Z,100.00
2022-10-11T03:56:41.973Z,100.00
2022-10-11T03:59:29.409Z,100.00
2022-10-11T04:02:16.331Z,100.00
2022-10-11T04:05:06.593Z,100.00
2022-10-11T04:07:53.850Z,100.00
2022-10-11T04:10:41.261Z,100.00
2022-10-11T04:13:27.945Z,100.00
2022-10-11T04:16:15.153Z,100.00
2022-10-11T04:19:02.568Z,100.00
2022-10-11T04:21:50.928Z,100.00
2022-10-11T04:24:38.035Z,100.00
2022-10-11T04:27:25.114Z,100.00
2022-10-11T04:30:13.618Z,100.00
2022-10-11T04:33:11.626Z,100.00
2022-10-11T04:36:01.045Z,100.00
2022-10-11T04:38:49.649Z,100.00
2022-10-11T04:41:36.746Z,100.00
2022-10-11T04:44:23.817Z,100.00
2022-10-11T04:47:10.610Z,100.00
2022-10-11T04:49:57.831Z,100.00
2022-10-11T04:52:44.817Z,100.00
2022-10-11T04:55:32.942Z,100.00
2022-10-11T04:58:20.012Z,100.00
2022-10-11T05:01:07.019Z,100.00
2022-10-11T05:03:54.246Z,100.00
2022-10-11T05:06:41.074Z,100.00
2022-10-11T05:09:27.875Z,100.00
2022-10-11T05:12:16.074Z,100.00
2022-10-11T05:15:03.419Z,100.00
2022-10-11T05:17:50.146Z,100.00
2022-10-11T05:20:37.056Z,100.00
2022-10-11T05:23:24.256Z,100.00
2022-10-11T05:26:11.343Z,100.00
2022-10-11T05:29:00.141Z,100.00
2022-10-11T05:31:47.437Z,100.00
2022-10-11T05:34:34.721Z,100.00
2022-10-11T05:37:21.617Z,100.00
2022-10-11T05:40:11.072Z,100.00
2022-10-11T05:42:58.346Z,100.00
2022-10-11T05:45:47.625Z,100.00
2022-10-11T05:48:35.489Z,100.00
2022-10-11T05:51:23.061Z,100.00
2022-10-11T05:54:09.882Z,100.00
2022-10-11T05:56:57.032Z,100.00
2022-10-11T05:59:44.283Z,100.00
2022-10-11T06:02:32.433Z,100.00
2022-10-11T06:05:19.831Z,100.00
2022-10-11T06:08:08.985Z,100.00
2022-10-11T06:10:56.283Z,100.00
2022-10-11T06:13:43.743Z,100.00
2022-10-11T06:16:30.953Z,100.00
2022-10-11T06:19:21.073Z,100.00
2022-10-11T06:22:12.263Z,100.00
2022-10-11T06:24:59.294Z,100.00
2022-10-11T06:27:46.405Z,100.00
2022-10-11T06:30:33.621Z,100.00
2022-10-11T06:33:20.577Z,100.00
2022-10-11T06:36:12.243Z,100.00
2022-10-11T06:39:01.473Z,100.00
2022-10-11T06:41:48.170Z,100.00
2022-10-11T06:44:35.126Z,100.00
2022-10-11T06:47:22.350Z,100.00
2022-10-11T06:50:09.752Z,100.00
2022-10-11T06:52:58.014Z,100.00
2022-10-11T06:55:45.287Z,100.00
2022-10-11T06:58:32.958Z,100.00
2022-10-11T07:01:21.674Z,100.00
2022-10-11T07:04:08.979Z,100.00
2022-10-11T07:06:55.792Z,100.00
2022-10-11T07:09:44.184Z,100.00
2022-10-11T07:12:31.292Z,100.00
2022-10-11T07:15:18.465Z,100.00
2022-10-11T07:18:05.842Z,100.00
2022-10-11T07:20:52.729Z,100.00
2022-10-11T07:23:39.521Z,100.00
2022-10-11T07:26:32.494Z,100.00
2022-10-11T07:29:24.038Z,100.00
2022-10-11T07:32:10.778Z,100.00
2022-10-11T07:34:57.726Z,100.00
2022-10-11T07:37:45.149Z,100.00
2022-10-11T07:40:32.035Z,100.00
2022-10-11T07:43:20.579Z,100.00
2022-10-11T07:46:08.275Z,100.00
2022-10-11T07:48:56.419Z,100.00
2022-10-11T07:51:43.265Z,100.00
2022-10-11T07:54:30.139Z,100.00
2022-10-11T07:57:17.525Z,100.00
2022-10-11T08:00:07.209Z,100.00
2022-10-11T08:02:58.940Z,100.00
2022-10-11T08:05:45.810Z,100.00
2022-10-11T08:08:33.611Z,100.00
2022-10-11T08:11:22.257Z,100.00
2022-10-11T08:14:11.354Z,100.00
2022-10-11T08:16:59.769Z,100.00
2022-10-11T08:19:46.375Z,100.00
2022-10-11T08:22:33.470Z,100.00
2022-10-11T08:25:20.537Z,100.00
2022-10-11T08:28:07.921Z,100.00
2022-10-11T08:30:55.993Z,100.00
2022-10-11T08:33:44.210Z,100.00
2022-10-11T08:36:31.174Z,100.00
2022-10-11T08:39:18.127Z,100.00
2022-10-11T08:42:08.556Z,100.00
2022-10-11T08:45:10.512Z,100.00
2022-10-11T08:48:04.193Z,100.00
2022-10-11T08:50:55.802Z,100.00
2022-10-11T08:53:50.162Z,100.00
2022-10-11T08:56:40.001Z,100.00
2022-10-11T08:59:32.697Z,100.00
2022-10-11T09:02:55.654Z,100.00
2022-10-11T09:05:49.774Z,100.00
2022-10-11T09:08:50.798Z,100.00
2022-10-11T09:11:49.019Z,100.00
2022-10-11T09:14:50.055Z,100.00
2022-10-11T09:17:57.178Z,100.00
2022-10-11T09:20:57.503Z,100.00
2022-10-11T09:24:03.969Z,100.00
2022-10-11T09:26:37.417Z,100.00
2022-10-11T09:29:09.717Z,100.00
2022-10-11T09:31:38.087Z,100.00
2022-10-11T09:34:12.196Z,100.00
2022-10-11T09:36:43.090Z,100.00
2022-10-11T09:39:21.824Z,100.00
2022-10-11T09:41:55.355Z,100.00
2022-10-11T09:44:25.677Z,100.00
2022-10-11T09:46:55.923Z,100.00
2022-10-11T09:49:28.978Z,100.00
2022-10-11T09:51:59.108Z,100.00
2022-10-11T09:54:40.525Z,100.00
2022-10-11T09:57:20.377Z,100.00
2022-10-11T10:00:03.721Z,100.00
2022-10-11T10:02:47.013Z,100.00
2022-10-11T10:05:18.947Z,100.00
2022-10-11T10:08:07.221Z,100.00
2022-10-11T10:10:39.921Z,100.00
2022-10-11T10:13:21.920Z,100.00
2022-10-11T10:15:53.589Z,100.00
2022-10-11T10:18:25.748Z,100.00
2022-10-11T10:20:55.658Z,100.00
2022-10-11T10:23:26.203Z,100.00
2022-10-11T10:26:11.209Z,96.72
2022-10-11T10:28:40.138Z,95.41
2022-10-11T10:31:22.483Z,98.86
2022-10-11T10:33:52.941Z,100.00
2022-10-11T10:36:24.816Z,100.00
2022-10-11T10:38:58.539Z,95.10
2022-10-11T10:41:28.414Z,100.00
2022-10-11T10:43:58.586Z,100.00
2022-10-11T10:46:35.154Z,100.00
2022-10-11T10:49:34.922Z,92.92
2022-10-11T10:52:21.613Z,94.95
2022-10-11T10:54:56.159Z,92.86
2022-10-11T10:57:29.825Z,94.34
2022-10-11T11:00:06.915Z,94.37
2022-10-11T11:02:43.836Z,86.72
2022-10-11T11:05:22.925Z,88.88
2022-10-11T11:07:53.533Z,90.24
2022-10-11T11:10:25.062Z,84.06
2022-10-11T11:13:02.721Z,90.36
2022-10-11T11:15:38.325Z,89.89
2022-10-11T11:18:20.356Z,90.24
2022-10-11T11:20:56.660Z,83.98
2022-10-11T11:23:31.829Z,89.08
2022-10-11T11:26:08.089Z,84.21
2022-10-11T11:28:48.867Z,83.30
2022-10-11T11:31:34.967Z,78.59
2022-10-11T11:34:06.930Z,75.72
2022-10-11T11:36:40.429Z,79.61
2022-10-11T11:39:13.693Z,78.84
2022-10-11T11:41:45.005Z,75.82
2022-10-11T11:44:20.896Z,74.13
2022-10-11T11:46:56.676Z,69.25
2022-10-11T11:49:29.583Z,65.63
2022-10-11T11:51:58.548Z,68.01
2022-10-11T11:54:37.358Z,62.74
2022-10-11T11:57:13.217Z,60.21
2022-10-11T11:59:47.257Z,58.42
2022-10-11T12:02:44.211Z,57.20
2022-10-11T12:05:14.891Z,58.66
2022-10-11T12:07:51.252Z,60.28
2022-10-11T12:10:32.632Z,64.23
2022-10-11T12:13:09.165Z,58.95
2022-10-11T12:15:39.316Z,56.31
2022-10-11T12:18:16.373Z,61.97
2022-10-11T12:20:45.480Z,59.01
2022-10-11T12:23:40.051Z,58.35
2022-10-11T12:26:32.210Z,57.26
2022-10-11T12:29:28.877Z,55.72
2022-10-11T12:34:52.863Z,59.52
2022-10-11T12:37:50.749Z,58.08
2022-10-11T12:40:37.263Z,57.23
2022-10-11T12:43:42.060Z,53.76
2022-10-11T12:46:40.459Z,51.04
2022-10-11T12:49:43.204Z,54.32
2022-10-11T12:52:27.053Z,54.41
2022-10-11T12:55:19.232Z,56.53
2022-10-11T12:58:24.957Z,55.22
2022-10-11T13:01:13.377Z,53.48
2022-10-11T13:03:43.106Z,53.07
2022-10-11T13:06:13.699Z,54.54
2022-10-11T13:08:45.885Z,55.45
2022-10-11T13:11:19.449Z,54.04
2022-10-11T13:13:52.035Z,54.23
2022-10-11T13:16:22.429Z,51.89
2022-10-11T13:18:56.623Z,52.48
2022-10-11T13:21:32.116Z,51.54
2022-10-11T13:24:03.867Z,52.00
2022-10-11T13:26:32.729Z,50.33
2022-10-11T13:29:01.588Z,52.40
2022-10-11T13:31:29.965Z,53.57
2022-10-11T13:34:00.251Z,53.92
2022-10-11T13:36:29.058Z,54.65
2022-10-11T13:38:59.035Z,56.07
2022-10-11T13:41:30.912Z,59.55
2022-10-11T13:44:00.546Z,66.66
2022-10-11T13:46:30.635Z,66.99
2022-10-11T13:49:03.206Z,62.91
2022-10-11T13:51:36.373Z,59.68
2022-10-11T13:54:09.461Z,60.73
2022-10-11T13:56:47.734Z,62.91
2022-10-11T13:59:19.394Z,64.03
2022-10-11T14:01:48.342Z,63.46
2022-10-11T14:04:18.381Z,61.19
2022-10-11T14:06:49.673Z,62.65
2022-10-11T14:09:21.520Z,64.82
2022-10-11T14:11:51.529Z,70.76
2022-10-11T14:14:31.044Z,79.36
2022-10-11T14:17:01.241Z,85.51
2022-10-11T14:19:29.678Z,83.27
2022-10-11T14:21:58.009Z,81.11
2022-10-11T14:24:26.437Z,84.12
2022-10-11T14:26:56.420Z,86.97
2022-10-11T14:29:26.574Z,95.04
2022-10-11T14:31:56.634Z,100.00
2022-10-11T14:34:25.973Z,100.00
2022-10-11T14:36:54.329Z,100.00
2022-10-11T14:39:23.796Z,100.00
2022-10-11T14:41:53.192Z,100.00
2022-10-11T14:44:23.364Z,100.00
2022-10-11T14:46:54.818Z,100.00
2022-10-11T14:49:25.240Z,100.00
2022-10-11T14:51:54.894Z,100.00
2022-10-11T14:54:24.470Z,100.00
2022-10-11T14:56:54.254Z,100.00
2022-10-11T14:59:25.867Z,100.00
2022-10-11T15:01:54.724Z,100.00
2022-10-11T15:04:23.497Z,100.00
2022-10-11T15:06:52.965Z,100.00
2022-10-11T15:09:21.921Z,100.00
2022-10-11T15:11:51.275Z,100.00
2022-10-11T15:14:19.539Z,100.00
2022-10-11T15:16:49.442Z,100.00
2022-10-11T15:19:18.938Z,100.00
2022-10-11T15:21:47.526Z,100.00
2022-10-11T15:24:16.156Z,100.00
2022-10-11T15:26:45.734Z,100.00
2022-10-11T15:29:14.253Z,100.00
2022-10-11T15:31:42.571Z,100.00
2022-10-11T15:34:12.476Z,100.00
2022-10-11T15:36:41.094Z,100.00
2022-10-11T15:39:24.218Z,100.00
2022-10-11T15:41:52.530Z,100.00
2022-10-11T15:44:21.471Z,100.00
2022-10-11T15:46:49.812Z,100.00
2022-10-11T15:49:19.755Z,100.00
2022-10-11T15:51:48.116Z,100.00
2022-10-11T15:54:16.476Z,100.00
2022-10-11T15:56:44.774Z,100.00
2022-10-11T15:59:13.045Z,100.00
2022-10-11T16:01:41.442Z,100.00
2022-10-11T16:04:10.593Z,100.00
2022-10-11T16:06:41.139Z,100.00
2022-10-11T16:09:09.544Z,100.00
2022-10-11T16:11:37.928Z,100.00
2022-10-11T16:14:06.240Z,100.00
2022-10-11T16:16:34.567Z,100.00
2022-10-11T16:19:02.905Z,100.00
2022-10-11T16:21:31.261Z,100.00
2022-10-11T16:24:02.383Z,100.00
2022-10-11T16:26:30.682Z,100.00
2022-10-11T16:29:00.337Z,100.00
2022-10-11T16:31:28.796Z,100.00
2022-10-11T16:33:57.689Z,100.00
2022-10-11T16:36:36.858Z,100.00
2022-10-11T16:39:13.412Z,100.00
2022-10-11T16:41:42.772Z,100.00
2022-10-11T16:44:17.566Z,100.00
2022-10-11T16:46:48.472Z,100.00
2022-10-11T16:49:20.333Z,100.00
2022-10-11T16:51:48.857Z,100.00
2022-10-11T16:54:20.768Z,100.00
2022-10-11T16:56:49.682Z,100.00
2022-10-11T16:59:18.536Z,100.00
2022-10-11T17:01:47.214Z,100.00
2022-10-11T17:04:15.856Z,100.00
2022-10-11T17:06:45.022Z,100.00
2022-10-11T17:09:13.447Z,100.00
2022-10-11T17:11:43.666Z,100.00
2022-10-11T17:14:12.834Z,100.00
2022-10-11T17:16:41.318Z,100.00
2022-10-11T17:19:11.398Z,100.00
2022-10-11T17:21:40.327Z,100.00
2022-10-11T17:24:10.359Z,100.00
2022-10-11T17:26:38.835Z,100.00
2022-10-11T17:29:09.090Z,100.00
2022-10-11T17:31:38.537Z,100.00
2022-10-11T17:34:07.164Z,100.00
2022-10-11T17:36:35.872Z,100.00
2022-10-11T17:39:06.632Z,100.00
2022-10-11T17:41:35.635Z,100.00
2022-10-11T17:44:04.637Z,100.00
2022-10-11T17:46:36.273Z,100.00
2022-10-11T17:49:06.993Z,100.00
2022-10-11T17:51:37.249Z,100.00
2022-10-11T17:54:06.724Z,100.00
2022-10-11T17:56:38.184Z,100.00
2022-10-11T17:59:09.914Z,100.00
2022-10-11T18:01:41.353Z,100.00
2022-10-11T18:04:17.446Z,100.00
2022-10-11T18:06:47.726Z,100.00
2022-10-11T18:09:18.997Z,100.00
2022-10-11T18:11:49.054Z,100.00
2022-10-11T18:14:21.924Z,100.00
2022-10-11T18:17:02.492Z,100.00
2022-10-11T18:19:31.767Z,100.00
2022-10-11T18:22:05.860Z,100.00
2022-10-11T18:24:38.156Z,100.00
2022-10-11T18:27:07.217Z,100.00
2022-10-11T18:29:37.182Z,100.00
2022-10-11T18:32:13.227Z,100.00
2022-10-11T18:34:42.888Z,100.00
2022-10-11T18:37:13.432Z,100.00
2022-10-11T18:39:42.632Z,100.00
2022-10-11T18:42:11.969Z,100.00
2022-10-11T18:44:43.848Z,100.00
2022-10-11T18:47:15.071Z,100.00
2022-10-11T18:49:44.500Z,100.00
2022-10-11T18:52:13.655Z,100.00
2022-10-11T18:54:44.130Z,100.00
2022-10-11T18:57:13.555Z,100.00
2022-10-11T18:59:43.038Z,100.00
2022-10-11T19:02:15.711Z,100.00
2022-10-11T19:04:47.904Z,100.00
2022-10-11T19:07:19.564Z,100.00
2022-10-11T19:09:50.087Z,100.00
2022-10-11T19:12:22.533Z,100.00
2022-10-11T19:14:52.806Z,100.00
2022-10-11T19:17:24.389Z,100.00
2022-10-11T19:19:53.621Z,100.00
2022-10-11T19:22:23.163Z,100.00
2022-10-11T19:24:52.827Z,100.00
2022-10-11T19:27:22.835Z,100.00
2022-10-11T19:29:52.320Z,100.00
2022-10-11T19:32:22.472Z,100.00
2022-10-11T19:34:52.602Z,100.00
2022-10-11T19:37:22.192Z,100.00
2022-10-11T19:39:51.103Z,100.00
2022-10-11T19:42:20.764Z,100.00
2022-10-11T19:44:50.502Z,100.00
2022-10-11T19:47:23.535Z,100.00
2022-10-11T19:49:56.990Z,100.00
2022-10-11T19:52:27.429Z,100.00
2022-10-11T19:54:58.873Z,100.00
2022-10-11T19:57:30.075Z,100.00
2022-10-11T20:00:00.751Z,100.00
2022-10-11T20:02:30.081Z,100.00
2022-10-11T20:05:00.937Z,100.00
2022-10-11T20:07:31.021Z,100.00
2022-10-11T20:10:01.849Z,100.00
2022-10-11T20:12:32.221Z,100.00
2022-10-11T20:15:01.032Z,100.00
2022-10-11T20:17:44.510Z,100.00
2022-10-11T20:20:14.796Z,100.00
2022-10-11T20:22:43.834Z,100.00
2022-10-11T20:25:12.618Z,100.00
2022-10-11T20:27:43.538Z,100.00
2022-10-11T20:30:14.774Z,100.00
2022-10-11T20:32:44.662Z,100.00
2022-10-11T20:35:15.920Z,100.00
2022-10-11T20:37:44.512Z,100.00
2022-10-11T20:40:14.479Z,100.00
2022-10-11T20:42:43.009Z,100.00
2022-10-11T20:45:13.636Z,100.00
2022-10-11T20:47:42.579Z,100.00
2022-10-11T20:50:11.110Z,100.00
2022-10-11T20:52:55.209Z,100.00
2022-10-11T20:55:23.646Z,100.00
2022-10-11T20:57:53.962Z,100.00
2022-10-11T21:00:23.302Z,100.00
2022-10-11T21:02:51.984Z,100.00
2022-10-11T21:05:20.480Z,100.00
2022-10-11T21:07:50.470Z,100.00
2022-10-11T21:10:23.420Z,100.00
2022-10-11T21:12:52.924Z,100.00
2022-10-11T21:15:24.748Z,100.00
2022-10-11T21:17:54.433Z,100.00
2022-10-11T21:20:23.024Z,100.00
2022-10-11T21:22:52.750Z,100.00
2022-10-11T21:25:21.440Z,100.00
2022-10-11T21:27:49.894Z,100.00
2022-10-11T21:30:18.651Z,100.00
2022-10-11T21:32:47.068Z,100.00
2022-10-11T21:35:15.510Z,100.00
2022-10-11T21:37:44.259Z,100.00
2022-10-11T21:40:13.977Z,100.00
2022-10-11T21:42:42.342Z,100.00
2022-10-11T21:45:10.791Z,100.00
2022-10-11T21:47:39.530Z,100.00
2022-10-11T21:50:09.005Z,100.00
2022-10-11T21:52:37.896Z,100.00
2022-10-11T21:55:06.873Z,100.00
2022-10-11T21:57:39.237Z,100.00
2022-10-11T22:00:08.978Z,100.00
2022-10-11T22:02:41.865Z,100.00
2022-10-11T22:05:10.350Z,100.00
2022-10-11T22:07:39.038Z,100.00
2022-10-11T22:10:07.876Z,100.00
2022-10-11T22:12:38.222Z,100.00
2022-10-11T22:15:08.025Z,100.00
2022-10-11T22:17:41.813Z,100.00
2022-10-11T22:20:10.913Z,100.00
2022-10-11T22:22:39.523Z,100.00
2022-10-11T22:25:09.122Z,100.00
2022-10-11T22:27:38.927Z,100.00
2022-10-11T22:30:08.405Z,100.00
2022-10-11T22:32:37.083Z,100.00
2022-10-11T22:35:06.175Z,100.00
2022-10-11T22:37:35.427Z,100.00
2022-10-11T22:40:04.431Z,100.00
2022-10-11T22:42:32.789Z,100.00
2022-10-11T22:45:02.608Z,100.00
2022-10-11T22:47:31.184Z,100.00
2022-10-11T22:49:59.550Z,100.00
2022-10-11T22:52:27.996Z,100.00
2022-10-11T22:54:59.253Z,100.00
2022-10-11T22:57:27.698Z,100.00
2022-10-11T22:59:56.060Z,100.00
2022-10-11T23:02:25.970Z,100.00
2022-10-11T23:04:54.635Z,100.00
2022-10-11T23:07:24.649Z,100.00
2022-10-11T23:09:53.154Z,100.00
2022-10-11T23:12:21.542Z,100.00
2022-10-11T23:14:49.922Z,100.00
2022-10-11T23:17:18.352Z,100.00
2022-10-11T23:19:48.351Z,100.00
2022-10-11T23:22:16.868Z,100.00
2022-10-11T23:24:45.119Z,100.00
2022-10-11T23:27:13.339Z,100.00
2022-10-11T23:29:41.682Z,100.00
2022-10-11T23:32:12.415Z,100.00
2022-10-11T23:34:40.778Z,100.00
2022-10-11T23:37:10.764Z,100.00
2022-10-11T23:39:39.209Z,100.00
2022-10-11T23:42:08.716Z,100.00
2022-10-11T23:44:37.066Z,100.00
2022-10-11T23:47:05.420Z,100.00
2022-10-11T23:49:33.955Z,100.00
2022-10-11T23:52:02.417Z,100.00
2022-10-11T23:54:32.299Z,100.00
2022-10-11T23:57:00.778Z,100.00
2022-10-11T23:59:29.730Z,100.00
